East Fork, Illinois
Current Conditions -  °F | °C
As of 1:35 AM on Monday 22 Dec 2014 (Local Time) from K3LF Reporting Station
Overcast Overcast  
Wind Chill: 30°   Ceiling: 4800
Heat Index: 37°   Visibility: 10mi
Dew Point: 30°   Wind: 10mph
Humidity: 74%   Direction: 120°ESE
Pressure: 29.92"   Gusts: NA
Location:  39.1049°N, 89.4043°W
Report Text: K3LF 220735Z AUTO 12009KT 10SM OVC048 03/M01 A2992 RMK AO2 T00301012
Loading
Personal Weather Stations






























Interactive Weather Map New forecast layout! Learn more

10-Day Weather Forecast

Advertisements
Track Severe Weather on mobile